Pagina principale
METAR-TAF:

METAR-TAF

Aeroporti :

Užice, Serbia

latitudine: 43-53-56N, longitudine: 19-41-52E, altezza: 904 m

Osservazione

Il bollettino è stato emesso 24 minuti fa, alle 02:00 UTC
Vento 7 kt da sud-ovest, variando fra sud e ovest
Temperature 8°C
Umidità 53%
Pressione 1018 hPa
Visibilità 10 km o più
nessuna nube inferiore a 1500 m e nessun cumulonembo

METAR: LYUZ 220200Z AUTO 23007KT 180V270 CAVOK 08/M01 Q1018

Ora: 04:24 (02:24 UTC)

Previsione

Il bollettino è stato emesso 3 ore e 24 minuti fa, alle 23:00 UTC
Previsione valida dal 22 alle 00 UTC al 22 alle 24 UTC
Vento 5 kt da sud-ovest
Visibilità 10 km o più
nessuna nube inferiore a 1500 m e nessun cumulonembo
Temporaneamente
dal 22 alle 22 UTC al 22 alle 24 UTC
pioggia

TAF: LYUZ 212300Z 2200/2224 23005KT CAVOK TX19/2214Z TN04/2203Z TEMPO 2222/2224 RA

Osservazioni e previsioni meteorologiche di più di 4000 aeroporti (messaggi METAR e TAF).

Le stazioni disponibili sono rappresentate dai dischi gialli e rossi sulla carta.

Puntare il mouse per vedere il nome della stazione.

Clicca sopra per visualizzare le osservazioni e previsioni meteorologiche.

Per cambiare la mappa : fare clic sui pulsanti verdi con una croce nera per ingrandire, il pulsante verde con un trattino per diminuire, o sulla freccia verde per le mappe adiacenti.


METAR-TAF: